createdAt,value
2022-10-15T00:00:28.254Z,28.70
2022-10-15T00:02:56.421Z,29.17
2022-10-15T00:05:24.676Z,28.83
2022-10-15T00:07:54.148Z,31.63
2022-10-15T00:10:22.350Z,29.00
2022-10-15T00:12:50.743Z,29.37
2022-10-15T00:15:19.064Z,27.80
2022-10-15T00:17:47.199Z,26.47
2022-10-15T00:20:15.387Z,27.13
2022-10-15T00:22:43.516Z,25.97
2022-10-15T00:25:13.100Z,26.80
2022-10-15T00:27:41.227Z,24.90
2022-10-15T00:30:10.417Z,27.87
2022-10-15T00:32:38.542Z,26.83
2022-10-15T00:35:07.323Z,28.07
2022-10-15T00:37:35.428Z,28.07
2022-10-15T00:40:03.727Z,28.23
2022-10-15T00:42:33.318Z,27.20
2022-10-15T00:45:01.452Z,28.33
2022-10-15T00:47:38.012Z,26.57
2022-10-15T00:50:07.596Z,27.40
2022-10-15T00:52:41.714Z,27.33
2022-10-15T00:55:12.345Z,26.97
2022-10-15T00:57:41.893Z,28.27
2022-10-15T01:00:11.980Z,29.57
2022-10-15T01:02:40.160Z,29.03
2022-10-15T01:05:08.863Z,30.23
2022-10-15T01:07:36.965Z,29.23
2022-10-15T01:10:05.450Z,28.87
2022-10-15T01:12:44.223Z,28.90
2022-10-15T01:15:14.975Z,28.33
2022-10-15T01:17:45.747Z,30.10
2022-10-15T01:20:35.530Z,28.97
2022-10-15T01:23:25.241Z,27.27
2022-10-15T01:25:58.070Z,27.53
2022-10-15T01:28:33.116Z,26.30
2022-10-15T01:31:03.660Z,28.40
2022-10-15T01:33:36.064Z,29.07
2022-10-15T01:36:09.133Z,29.37
2022-10-15T01:38:42.074Z,28.43
2022-10-15T01:41:11.404Z,29.47
2022-10-15T01:43:42.145Z,29.67
2022-10-15T01:46:14.018Z,28.43
2022-10-15T01:48:42.305Z,29.67
2022-10-15T01:51:10.426Z,30.07
2022-10-15T01:53:38.566Z,29.73
2022-10-15T01:56:07.692Z,29.07
2022-10-15T01:58:36.507Z,29.63
2022-10-15T02:01:04.652Z,31.43
2022-10-15T02:03:43.917Z,30.93
2022-10-15T02:06:12.663Z,30.80
2022-10-15T02:08:44.254Z,32.07
2022-10-15T02:11:13.863Z,32.43
2022-10-15T02:13:46.115Z,31.00
2022-10-15T02:16:15.276Z,29.57
2022-10-15T02:18:48.099Z,32.27
2022-10-15T02:21:18.001Z,32.97
2022-10-15T02:23:48.951Z,31.03
2022-10-15T02:26:17.086Z,31.70
2022-10-15T02:28:46.740Z,31.90
2022-10-15T02:31:15.471Z,31.80
2022-10-15T02:33:45.039Z,31.33
2022-10-15T02:36:13.130Z,31.47
2022-10-15T02:38:41.814Z,31.97
2022-10-15T02:41:10.855Z,30.90
2022-10-15T02:43:39.235Z,31.70
2022-10-15T02:46:07.501Z,31.97
2022-10-15T02:48:35.609Z,32.63
2022-10-15T02:51:05.324Z,32.33
2022-10-15T02:53:33.434Z,32.67
2022-10-15T02:56:01.582Z,32.57
2022-10-15T02:58:31.016Z,31.97
2022-10-15T03:00:59.123Z,32.27
2022-10-15T03:03:27.259Z,32.80
2022-10-15T03:05:55.599Z,32.23
2022-10-15T03:08:25.118Z,33.73
2022-10-15T03:10:53.200Z,32.83
2022-10-15T03:13:21.319Z,30.97
2022-10-15T03:15:49.524Z,32.50
2022-10-15T03:18:17.625Z,32.57
2022-10-15T03:20:47.409Z,31.70
2022-10-15T03:23:15.542Z,31.50
2022-10-15T03:25:45.048Z,31.27
2022-10-15T03:28:13.164Z,30.20
2022-10-15T03:30:41.249Z,31.23
2022-10-15T03:33:09.492Z,31.67
2022-10-15T03:35:37.578Z,32.33
2022-10-15T03:38:05.762Z,33.43
2022-10-15T03:40:34.586Z,33.33
2022-10-15T03:43:04.047Z,32.20
2022-10-15T03:45:32.208Z,33.73
2022-10-15T03:48:00.337Z,34.03
2022-10-15T03:50:28.514Z,32.50
2022-10-15T03:52:56.728Z,34.40
2022-10-15T03:55:24.855Z,34.33
2022-10-15T03:57:52.992Z,32.57
2022-10-15T04:00:22.550Z,34.27
2022-10-15T04:02:50.746Z,34.00
2022-10-15T04:05:19.001Z,34.40
2022-10-15T04:07:47.313Z,34.43
2022-10-15T04:10:15.589Z,33.73
2022-10-15T04:12:44.061Z,33.73
2022-10-15T04:15:12.453Z,33.60
2022-10-15T04:17:42.014Z,31.80
2022-10-15T04:20:11.276Z,34.07
2022-10-15T04:22:39.480Z,35.00
2022-10-15T04:25:08.644Z,32.30
2022-10-15T04:27:37.083Z,32.80
2022-10-15T04:30:05.963Z,33.23
2022-10-15T04:32:34.090Z,33.63
2022-10-15T04:35:03.649Z,32.60
2022-10-15T04:37:34.398Z,31.87
2022-10-15T04:40:03.392Z,34.17
2022-10-15T04:42:31.567Z,34.30
2022-10-15T04:44:59.688Z,34.47
2022-10-15T04:47:27.776Z,32.20
2022-10-15T04:49:56.054Z,33.27
2022-10-15T04:52:25.715Z,31.93
2022-10-15T04:54:53.872Z,32.50
2022-10-15T04:57:22.437Z,31.77
2022-10-15T04:59:53.905Z,30.97
2022-10-15T05:02:25.141Z,31.63
2022-10-15T05:04:53.233Z,32.37
2022-10-15T05:07:21.860Z,31.10
2022-10-15T05:09:51.531Z,30.30
2022-10-15T05:12:20.546Z,32.27
2022-10-15T05:14:48.676Z,31.20
2022-10-15T05:17:16.827Z,30.13
2022-10-15T05:19:44.983Z,30.17
2022-10-15T05:22:13.085Z,32.00
2022-10-15T05:24:41.258Z,29.47
2022-10-15T05:27:10.785Z,31.07
2022-10-15T05:29:39.960Z,31.63
2022-10-15T05:32:08.746Z,30.43
2022-10-15T05:34:36.902Z,30.63
2022-10-15T05:37:05.080Z,30.63
2022-10-15T05:39:33.232Z,31.93
2022-10-15T05:42:01.488Z,31.87
2022-10-15T05:44:30.997Z,31.30
2022-10-15T05:46:59.195Z,31.10
2022-10-15T05:49:27.322Z,31.70
2022-10-15T05:54:28.465Z,29.57
2022-10-15T05:56:56.761Z,28.80
2022-10-15T05:59:24.894Z,31.50
2022-10-15T06:01:54.546Z,28.80
2022-10-15T06:04:22.654Z,29.87
2022-10-15T06:06:50.878Z,28.80
2022-10-15T06:09:19.139Z,30.20
2022-10-15T06:11:47.569Z,29.50
2022-10-15T06:14:15.712Z,28.87
2022-10-15T06:16:43.887Z,28.07
2022-10-15T06:19:15.303Z,27.13
2022-10-15T06:21:43.516Z,28.80
2022-10-15T06:24:11.763Z,28.50
2022-10-15T06:26:39.997Z,27.50
2022-10-15T06:29:08.263Z,25.50
2022-10-15T06:31:36.492Z,26.53
2022-10-15T06:34:04.729Z,27.40
2022-10-15T06:36:35.629Z,26.63
2022-10-15T06:39:03.763Z,26.57
2022-10-15T06:41:31.908Z,25.83
2022-10-15T06:44:00.047Z,24.13
2022-10-15T06:46:28.251Z,23.80
2022-10-15T06:48:56.372Z,24.70
2022-10-15T06:51:24.564Z,24.07
2022-10-15T06:53:54.112Z,23.90
2022-10-15T06:56:22.578Z,23.67
2022-10-15T06:58:50.763Z,22.23
2022-10-15T07:01:18.963Z,23.73
2022-10-15T07:03:49.760Z,22.17
2022-10-15T07:06:18.262Z,22.87
2022-10-15T07:08:46.412Z,22.20
2022-10-15T07:11:15.968Z,23.07
2022-10-15T07:13:44.388Z,21.80
2022-10-15T07:16:13.260Z,22.80
2022-10-15T07:18:41.659Z,22.87
2022-10-15T07:23:38.387Z,21.83
2022-10-15T07:26:06.707Z,21.20
2022-10-15T07:28:36.396Z,22.27
2022-10-15T07:31:05.490Z,20.90
2022-10-15T07:33:34.963Z,21.43
2022-10-15T07:36:04.874Z,22.37
2022-10-15T07:38:33.234Z,20.53
2022-10-15T07:41:01.544Z,20.90
2022-10-15T07:43:29.866Z,20.13
2022-10-15T07:45:59.426Z,20.87
2022-10-15T07:48:27.821Z,20.47
2022-10-15T07:50:56.488Z,20.90
2022-10-15T07:53:24.743Z,20.33
2022-10-15T07:55:53.125Z,20.13
2022-10-15T07:58:21.296Z,19.67
2022-10-15T08:00:49.428Z,19.87
2022-10-15T08:03:18.986Z,20.87
2022-10-15T08:05:47.219Z,19.97
2022-10-15T08:08:15.465Z,20.13
2022-10-15T08:10:43.615Z,20.87
2022-10-15T08:13:11.811Z,19.17
2022-10-15T08:15:40.611Z,19.37
2022-10-15T08:18:10.069Z,20.33
2022-10-15T08:20:39.716Z,20.40
2022-10-15T08:23:08.020Z,20.07
2022-10-15T08:25:36.183Z,20.17
2022-10-15T08:28:04.412Z,19.67
2022-10-15T08:30:32.653Z,18.23
2022-10-15T08:33:00.931Z,19.53
2022-10-15T08:35:29.113Z,17.13
2022-10-15T08:37:58.676Z,17.70
2022-10-15T08:40:27.347Z,16.13
2022-10-15T08:42:55.526Z,15.37
2022-10-15T08:45:25.470Z,16.67
2022-10-15T08:47:55.207Z,15.53
2022-10-15T08:50:27.978Z,14.23
2022-10-15T08:52:56.525Z,12.87
2022-10-15T08:55:26.025Z,13.13
2022-10-15T08:57:55.991Z,12.90
2022-10-15T09:00:25.439Z,12.27
2022-10-15T09:02:59.197Z,11.97
2022-10-15T09:05:34.410Z,12.23
2022-10-15T09:08:08.349Z,11.40
2022-10-15T09:10:42.979Z,10.73
2022-10-15T09:13:16.228Z,11.03
2022-10-15T09:15:49.612Z,10.63
2022-10-15T09:18:21.230Z,11.13
2022-10-15T09:20:49.503Z,10.07
2022-10-15T09:23:18.878Z,10.20
2022-10-15T09:25:51.335Z,9.40
2022-10-15T09:28:19.755Z,9.80
2022-10-15T09:30:49.462Z,9.47
2022-10-15T09:33:19.300Z,8.70
2022-10-15T09:35:48.844Z,8.43
2022-10-15T09:38:26.902Z,8.27
2022-10-15T09:41:02.834Z,8.27
2022-10-15T09:43:35.493Z,7.50
2022-10-15T09:46:03.655Z,8.07
2022-10-15T09:48:33.550Z,8.00
2022-10-15T09:51:04.142Z,7.93
2022-10-15T09:53:41.294Z,8.00
2022-10-15T09:56:12.556Z,7.80
2022-10-15T09:58:41.885Z,7.87
2022-10-15T10:01:10.015Z,7.57
2022-10-15T10:03:38.245Z,7.73
2022-10-15T10:06:07.841Z,7.07
2022-10-15T10:08:39.276Z,8.80
2022-10-15T10:11:08.677Z,7.90
2022-10-15T10:13:41.291Z,6.30
2022-10-15T10:16:10.868Z,7.70
2022-10-15T10:18:39.149Z,7.07
2022-10-15T10:21:07.983Z,7.57
2022-10-15T10:23:36.942Z,6.80
2022-10-15T10:26:06.161Z,7.00
2022-10-15T10:28:39.289Z,7.40
2022-10-15T10:31:11.609Z,6.67
2022-10-15T10:33:45.221Z,6.97
2022-10-15T10:36:21.486Z,7.13
2022-10-15T10:38:57.292Z,8.03
2022-10-15T10:41:25.538Z,7.40
2022-10-15T10:43:54.937Z,7.23
2022-10-15T10:46:24.706Z,6.97
2022-10-15T10:48:53.355Z,6.73
2022-10-15T10:51:23.355Z,7.17
2022-10-15T10:53:54.045Z,6.57
2022-10-15T10:56:24.286Z,6.97
2022-10-15T10:58:58.414Z,6.90
2022-10-15T11:01:28.020Z,7.27
2022-10-15T11:03:56.284Z,6.87
2022-10-15T11:06:51.180Z,6.30
2022-10-15T11:09:26.710Z,6.50
2022-10-15T11:12:02.138Z,7.10
2022-10-15T11:14:34.291Z,7.07
2022-10-15T11:17:06.787Z,7.70
2022-10-15T11:22:35.245Z,7.40
2022-10-15T11:25:07.534Z,7.37
2022-10-15T11:27:44.611Z,6.90
2022-10-15T11:30:18.280Z,7.20
2022-10-15T11:33:06.820Z,6.83
2022-10-15T11:35:52.813Z,7.23
2022-10-15T11:38:26.717Z,6.73
2022-10-15T11:41:05.149Z,6.37
2022-10-15T11:43:49.063Z,7.00
2022-10-15T11:46:21.074Z,6.73
2022-10-15T11:48:58.164Z,6.17
2022-10-15T11:51:30.855Z,6.83
2022-10-15T11:54:15.074Z,7.23
2022-10-15T11:56:44.541Z,6.17
2022-10-15T11:59:18.765Z,6.30
2022-10-15T12:01:48.322Z,6.60
2022-10-15T12:04:19.597Z,6.87
2022-10-15T12:06:51.100Z,7.40
2022-10-15T12:09:22.781Z,8.77
2022-10-15T12:11:52.646Z,6.90
2022-10-15T12:14:23.791Z,6.67
2022-10-15T12:16:57.493Z,22.67
2022-10-15T12:19:27.821Z,19.30
2022-10-15T12:22:06.973Z,13.57
2022-10-15T12:24:54.225Z,10.07
2022-10-15T12:27:34.780Z,42.23
2022-10-15T12:30:22.040Z,34.90
2022-10-15T12:32:50.311Z,22.47
2022-10-15T12:35:34.774Z,20.83
2022-10-15T12:38:28.132Z,16.83
2022-10-15T12:41:04.398Z,25.27
2022-10-15T12:43:33.310Z,12.40
2022-10-15T12:46:02.332Z,8.57
2022-10-15T12:48:40.977Z,6.93
2022-10-15T12:51:40.968Z,8.33
2022-10-15T12:54:37.473Z,7.83
2022-10-15T12:57:34.657Z,7.37
2022-10-15T13:00:03.256Z,8.10
2022-10-15T13:02:37.546Z,7.30
2022-10-15T13:05:06.780Z,6.97
2022-10-15T13:07:38.181Z,7.17
2022-10-15T13:10:06.846Z,6.57
2022-10-15T13:12:35.262Z,7.40
2022-10-15T13:15:06.280Z,8.30
2022-10-15T13:17:34.458Z,7.40
2022-10-15T13:20:04.625Z,8.17
2022-10-15T13:22:33.860Z,8.70
2022-10-15T13:25:03.567Z,9.00
2022-10-15T13:27:32.618Z,7.57
2022-10-15T13:30:01.715Z,7.33
2022-10-15T13:32:31.515Z,6.73
2022-10-15T13:34:59.787Z,6.73
2022-10-15T13:37:31.923Z,6.27
2022-10-15T13:40:03.082Z,9.13
2022-10-15T13:42:36.262Z,6.90
2022-10-15T13:45:05.517Z,5.83
2022-10-15T13:47:35.421Z,6.10
2022-10-15T13:50:20.652Z,6.90
2022-10-15T13:52:51.250Z,7.07
2022-10-15T13:55:35.456Z,7.80
2022-10-15T13:58:05.716Z,6.77
2022-10-15T14:00:34.745Z,7.10
2022-10-15T14:03:17.345Z,7.27
2022-10-15T14:05:46.065Z,7.17
2022-10-15T14:08:25.824Z,6.70
2022-10-15T14:10:54.964Z,7.10
2022-10-15T14:13:24.611Z,7.20
2022-10-15T14:15:59.609Z,7.03
2022-10-15T14:18:35.843Z,6.87
2022-10-15T14:21:04.243Z,7.20
2022-10-15T14:23:32.441Z,8.03
2022-10-15T14:26:01.881Z,7.37
2022-10-15T14:28:32.625Z,7.40
2022-10-15T14:31:00.875Z,7.60
2022-10-15T14:33:46.741Z,7.60
2022-10-15T14:36:25.551Z,8.30
2022-10-15T14:38:53.964Z,7.20
2022-10-15T14:41:30.244Z,7.20
2022-10-15T14:44:18.006Z,7.20
2022-10-15T14:46:47.206Z,7.50
2022-10-15T14:49:20.480Z,7.93
2022-10-15T14:51:56.764Z,7.27
2022-10-15T14:54:26.471Z,6.90
2022-10-15T14:56:54.815Z,7.17
2022-10-15T14:59:25.023Z,7.20
2022-10-15T15:01:57.180Z,6.97
2022-10-15T15:04:36.297Z,6.90
2022-10-15T15:07:04.510Z,7.17
2022-10-15T15:09:32.591Z,7.57
2022-10-15T15:12:00.841Z,8.17
2022-10-15T15:14:30.300Z,7.07
2022-10-15T15:16:58.417Z,7.20
2022-10-15T15:19:26.637Z,8.10
2022-10-15T15:21:54.782Z,8.70
2022-10-15T15:24:23.026Z,7.87
2022-10-15T15:26:51.276Z,7.53
2022-10-15T15:29:19.514Z,8.80
2022-10-15T15:31:49.085Z,8.07
2022-10-15T15:34:17.174Z,7.87
2022-10-15T15:36:45.434Z,8.63
2022-10-15T15:39:13.486Z,8.50
2022-10-15T15:41:41.724Z,8.80
2022-10-15T15:44:12.688Z,8.13
2022-10-15T15:46:40.872Z,8.50
2022-10-15T15:49:10.735Z,8.40
2022-10-15T15:51:38.884Z,7.63
2022-10-15T15:54:09.841Z,7.73
2022-10-15T15:56:39.941Z,7.60
2022-10-15T15:59:08.122Z,7.03
2022-10-15T16:01:36.687Z,9.23
2022-10-15T16:04:05.002Z,8.90
2022-10-15T16:06:34.558Z,9.20
2022-10-15T16:09:02.770Z,7.63
2022-10-15T16:11:30.982Z,8.70
2022-10-15T16:13:59.220Z,9.90
2022-10-15T16:16:28.471Z,10.67
2022-10-15T16:18:56.677Z,9.67
2022-10-15T16:21:24.907Z,9.07
2022-10-15T16:23:54.653Z,9.83
2022-10-15T16:26:23.210Z,9.03
2022-10-15T16:28:51.463Z,8.77
2022-10-15T16:31:20.414Z,9.50
2022-10-15T16:33:48.678Z,8.77
2022-10-15T16:36:17.530Z,9.40
2022-10-15T16:38:46.105Z,8.87
2022-10-15T16:41:18.787Z,8.70
2022-10-15T16:43:47.750Z,8.87
2022-10-15T16:46:16.228Z,9.40
2022-10-15T16:48:44.464Z,9.43
2022-10-15T16:51:13.625Z,9.80
2022-10-15T16:53:42.499Z,9.43
2022-10-15T16:56:11.432Z,9.27
2022-10-15T16:58:41.091Z,9.20
2022-10-15T17:01:11.542Z,10.20
2022-10-15T17:03:40.491Z,11.27
2022-10-15T17:06:10.460Z,11.50
2022-10-15T17:08:40.379Z,11.87
2022-10-15T17:11:10.833Z,12.57
2022-10-15T17:13:40.351Z,11.80
2022-10-15T17:16:13.060Z,12.73
2022-10-15T17:18:41.436Z,12.80
2022-10-15T17:21:10.776Z,12.40
2022-10-15T17:23:39.147Z,12.63
2022-10-15T17:26:07.657Z,12.80
2022-10-15T17:28:35.917Z,12.83
2022-10-15T17:31:06.914Z,13.63
2022-10-15T17:33:35.336Z,14.07
2022-10-15T17:36:04.430Z,14.80
2022-10-15T17:38:32.756Z,13.40
2022-10-15T17:41:00.960Z,13.40
2022-10-15T17:43:29.117Z,13.60
2022-10-15T17:46:01.238Z,12.97
2022-10-15T17:48:30.900Z,13.97
2022-10-15T17:51:00.597Z,14.07
2022-10-15T17:53:28.936Z,14.17
2022-10-15T17:55:57.192Z,13.63
2022-10-15T17:58:25.407Z,14.90
2022-10-15T18:00:54.252Z,14.13
2022-10-15T18:03:22.447Z,13.93
2022-10-15T18:05:51.957Z,14.23
2022-10-15T18:08:20.233Z,14.20
2022-10-15T18:10:51.990Z,14.63
2022-10-15T18:13:20.310Z,16.23
2022-10-15T18:15:48.931Z,15.13
2022-10-15T18:18:17.111Z,14.87
2022-10-15T18:20:46.526Z,14.47
2022-10-15T18:23:16.170Z,15.43
2022-10-15T18:25:44.360Z,15.23
2022-10-15T18:28:13.601Z,17.63
2022-10-15T18:30:42.814Z,15.90
2022-10-15T18:33:11.717Z,17.00
2022-10-15T18:35:40.062Z,17.53
2022-10-15T18:38:08.334Z,18.23
2022-10-15T18:40:41.097Z,18.90
2022-10-15T18:43:09.498Z,18.17
2022-10-15T18:45:37.727Z,16.60
2022-10-15T18:48:06.080Z,16.43
2022-10-15T18:50:34.201Z,17.77
2022-10-15T18:53:03.241Z,17.77
2022-10-15T18:55:32.341Z,16.33
2022-10-15T18:58:02.043Z,16.37
2022-10-15T19:00:31.491Z,17.47
2022-10-15T19:02:59.947Z,17.97
2022-10-15T19:05:28.160Z,17.33
2022-10-15T19:07:56.354Z,16.70
2022-10-15T19:10:24.625Z,16.67
2022-10-15T19:12:52.881Z,18.00
2022-10-15T19:15:22.494Z,15.47
2022-10-15T19:17:50.727Z,16.33
2022-10-15T19:20:19.108Z,17.50
2022-10-15T19:22:47.440Z,17.90
2022-10-15T19:25:15.608Z,17.80
2022-10-15T19:27:44.082Z,16.67
2022-10-15T19:30:12.706Z,17.57
2022-10-15T19:32:44.321Z,19.23
2022-10-15T19:35:12.489Z,17.70
2022-10-15T19:37:40.700Z,18.97
2022-10-15T19:40:10.412Z,19.27
2022-10-15T19:42:38.563Z,18.90
2022-10-15T19:45:07.396Z,18.90
2022-10-15T19:47:35.723Z,18.70
2022-10-15T19:50:05.991Z,18.70
2022-10-15T19:52:34.441Z,19.93
2022-10-15T19:55:03.468Z,21.70
2022-10-15T19:57:31.662Z,23.20
2022-10-15T19:59:59.814Z,20.67
2022-10-15T20:02:28.458Z,21.80
2022-10-15T20:04:56.626Z,21.43
2022-10-15T20:07:26.496Z,19.33
2022-10-15T20:09:54.914Z,19.63
2022-10-15T20:12:23.133Z,19.70
2022-10-15T20:14:51.367Z,18.83
2022-10-15T20:17:19.712Z,18.60
2022-10-15T20:19:49.058Z,18.27
2022-10-15T20:22:17.211Z,18.13
2022-10-15T20:24:46.891Z,19.13
2022-10-15T20:27:15.036Z,20.10
2022-10-15T20:29:43.160Z,19.90
2022-10-15T20:32:30.053Z,20.80
2022-10-15T20:35:01.902Z,22.20
2022-10-15T20:37:30.118Z,20.87
2022-10-15T20:40:00.274Z,19.53
2022-10-15T20:42:29.122Z,20.70
2022-10-15T20:44:57.496Z,20.97
2022-10-15T20:47:25.677Z,23.03
2022-10-15T20:49:54.125Z,23.57
2022-10-15T20:52:22.296Z,22.57
2022-10-15T20:54:50.591Z,23.70
2022-10-15T20:57:20.140Z,22.60
2022-10-15T20:59:48.335Z,23.50
2022-10-15T21:02:16.610Z,23.17
2022-10-15T21:04:46.883Z,24.43
2022-10-15T21:07:15.104Z,23.93
2022-10-15T21:09:43.251Z,23.83
2022-10-15T21:12:11.416Z,21.57
2022-10-15T21:14:40.954Z,23.37
2022-10-15T21:17:09.112Z,23.00
2022-10-15T21:19:37.256Z,21.53
2022-10-15T21:22:05.516Z,21.97
2022-10-15T21:24:35.150Z,19.73
2022-10-15T21:27:03.367Z,20.93
2022-10-15T21:29:31.518Z,20.70
2022-10-15T21:32:01.105Z,20.70
2022-10-15T21:34:29.340Z,20.47
2022-10-15T21:36:57.894Z,21.20
2022-10-15T21:39:26.039Z,20.80
2022-10-15T21:41:54.250Z,21.53
2022-10-15T21:44:22.360Z,21.27
2022-10-15T21:46:50.572Z,23.17
2022-10-15T21:49:20.094Z,22.87
2022-10-15T21:51:48.378Z,23.20
2022-10-15T21:54:16.469Z,23.67
2022-10-15T21:56:44.638Z,23.77
2022-10-15T21:59:12.766Z,22.87
2022-10-15T22:01:42.901Z,23.30
2022-10-15T22:04:11.769Z,24.23
2022-10-15T22:06:41.574Z,23.27
2022-10-15T22:09:09.896Z,22.60
2022-10-15T22:11:38.936Z,22.27
2022-10-15T22:14:07.782Z,21.53
2022-10-15T22:16:36.711Z,20.13
2022-10-15T22:19:05.270Z,19.07
2022-10-15T22:21:35.154Z,18.83
2022-10-15T22:24:05.568Z,19.17
2022-10-15T22:26:34.948Z,18.57
2022-10-15T22:29:04.175Z,19.67
2022-10-15T22:31:33.020Z,18.50
2022-10-15T22:34:01.188Z,17.57
2022-10-15T22:36:30.212Z,17.17
2022-10-15T22:39:01.798Z,16.70
2022-10-15T22:41:32.566Z,15.73
2022-10-15T22:44:00.822Z,15.80
2022-10-15T22:46:29.294Z,15.80
2022-10-15T22:48:57.486Z,15.10
2022-10-15T22:51:25.884Z,13.57
2022-10-15T22:53:55.772Z,14.33
2022-10-15T22:56:23.922Z,14.27
2022-10-15T22:58:53.419Z,13.93
2022-10-15T23:01:22.913Z,14.50
2022-10-15T23:03:51.836Z,13.67
2022-10-15T23:06:20.383Z,13.43
2022-10-15T23:08:48.520Z,13.80
2022-10-15T23:11:17.633Z,14.17
2022-10-15T23:13:46.263Z,13.13
2022-10-15T23:16:17.254Z,13.43
2022-10-15T23:18:45.912Z,14.10
2022-10-15T23:21:15.660Z,13.30
2022-10-15T23:23:44.048Z,13.20
2022-10-15T23:26:12.437Z,13.73
2022-10-15T23:28:40.668Z,13.27
2022-10-15T23:31:08.849Z,13.13
2022-10-15T23:33:38.407Z,14.13
2022-10-15T23:36:06.695Z,15.47
2022-10-15T23:38:34.861Z,15.43
2022-10-15T23:41:03.339Z,13.83
2022-10-15T23:43:31.562Z,14.43
2022-10-15T23:45:59.798Z,14.80
2022-10-15T23:48:28.171Z,13.97
2022-10-15T23:51:00.975Z,13.60
2022-10-15T23:53:32.848Z,13.70
2022-10-15T23:56:02.881Z,13.27
2022-10-15T23:58:32.256Z,12.47
